Latest Weather Observations for Sellicks Hill

IDS60801

Issued at 4:31 am CDT Sunday 26 February 2017 (issued every 30 minutes, with the page automatically refreshed every 10 minutes)

About weather observations | Map of weather stations | Latest weather observations for SA | Other Formats
Station Details ID: 023886 Name: MOUNT TERRIBLE RADAR Lat: -35.33 Lon: 138.50 Height: 385.7 m
Data from the previous 72 hours. | See also: Recent months for locations in South Australia
Date/Time
CDT
Temp
°C
App
Temp
°C
Dew
Point
°C
Rel
Hum
%
Delta-T
°C
Wind Press
QNH
hPa
Press
MSL
hPa
Rain since
9am
mm
Dir  Spd
km/h
Gust
km/h
Spd
kts
Gust
kts
26/04:00am - - - - - SE 26 35 14 19 - - -
26/03:30am - - - - - SE 33 39 18 21 - - -
26/03:00am - - - - - SE 37 46 20 25 - - -
26/02:30am - - - - - SE 37 46 20 25 - - -
26/02:00am - - - - - SE 41 50 22 27 - - -
26/01:30am - - - - - SE 39 48 21 26 - - -
26/01:00am - - - - - SE 39 48 21 26 - - -
26/12:30am - - - - - SSE 41 48 22 26 - - -
26/12:00am - - - - - SSE 43 48 23 26 - - -
 
Date/Time
CDT
Temp
°C
App
Temp
°C
Dew
Point
°C
Rel
Hum
%
Delta-T
°C
Wind Press
QNH
hPa
Press
MSL
hPa
Rain since
9am
mm
Dir  Spd
km/h
Gust
km/h
Spd
kts
Gust
kts
25/11:30pm - - - - - SSE 41 46 22 25 - - -
25/11:00pm - - - - - SSE 44 52 24 28 - - -
25/10:30pm - - - - - SSE 52 59 28 32 - - -
25/10:00pm - - - - - SSE 48 57 26 31 - - -
25/09:30pm - - - - - SSE 37 46 20 25 - - -
25/09:00pm - - - - - SSE 41 50 22 27 - - -
25/08:30pm - - - - - SSE 41 46 22 25 - - -
25/08:00pm - - - - - SSE 39 50 21 27 - - -
25/07:30pm - - - - - SSE 44 56 24 30 - - -
25/07:00pm - - - - - SSE 43 50 23 27 - - -
25/06:30pm - - - - - SSE 43 52 23 28 - - -
25/06:00pm - - - - - SSE 43 52 23 28 - - -
25/05:30pm - - - - - SSE 41 50 22 27 - - -
25/05:00pm - - - - - SSE 43 57 23 31 - - -
25/04:30pm - - - - - SSE 43 54 23 29 - - -
25/04:00pm - - - - - SSE 44 57 24 31 - - -
25/03:30pm - - - - - SSE 41 59 22 32 - - -
25/03:00pm - - - - - SSE 37 46 20 25 - - -
25/02:30pm - - - - - SSE 33 46 18 25 - - -
25/02:00pm - - - - - SSE 35 44 19 24 - - -
25/01:30pm - - - - - SSE 35 46 19 25 - - -
25/01:00pm - - - - - SSE 30 43 16 23 - - -
25/12:30pm - - - - - SE 33 46 18 25 - - -
25/12:00pm - - - - - SE 30 41 16 22 - - -
25/11:30am - - - - - SE 32 44 17 24 - - -
25/11:00am - - - - - SE 30 39 16 21 - - -
25/10:30am - - - - - SE 28 41 15 22 - - -
25/10:00am - - - - - SE 26 37 14 20 - - -
25/09:30am - - - - - SE 33 44 18 24 - - -
25/09:00am - - - - - SE 33 44 18 24 - - -
25/08:30am - - - - - SE 41 52 22 28 - - -
25/08:00am - - - - - SE 41 50 22 27 - - -
25/07:30am - - - - - SE 43 57 23 31 - - -
25/07:00am - - - - - SE 41 52 22 28 - - -
25/06:30am - - - - - SE 39 48 21 26 - - -
25/06:00am - - - - - SE 37 48 20 26 - - -
25/05:30am - - - - - SE 39 46 21 25 - - -
25/05:00am - - - - - SE 35 44 19 24 - - -
25/04:30am - - - - - SE 35 43 19 23 - - -
25/04:00am - - - - - SE 37 44 20 24 - - -
25/03:30am - - - - - SE 41 50 22 27 - - -
25/03:00am - - - - - SSE 35 43 19 23 - - -
25/02:30am - - - - - SSE 35 41 19 22 - - -
25/02:00am - - - - - SSE 37 44 20 24 - - -
25/01:30am - - - - - SSE 44 50 24 27 - - -
25/01:00am - - - - - SSE 41 46 22 25 - - -
25/12:30am - - - - - SSE 41 44 22 24 - - -
25/12:00am - - - - - SSE 33 39 18 21 - - -
 
Date/Time
CDT
Temp
°C
App
Temp
°C
Dew
Point
°C
Rel
Hum
%
Delta-T
°C
Wind Press
QNH
hPa
Press
MSL
hPa
Rain since
9am
mm
Dir  Spd
km/h
Gust
km/h
Spd
kts
Gust
kts
24/11:30pm - - - - - SSE 30 37 16 20 - - -
24/11:00pm - - - - - SSE 32 41 17 22 - - -
24/10:30pm - - - - - SSE 33 39 18 21 - - -
24/10:00pm - - - - - SSE 32 43 17 23 - - -
24/09:30pm - - - - - SSE 33 41 18 22 - - -
24/09:00pm - - - - - SSE 33 46 18 25 - - -
24/08:30pm - - - - - SSE 32 39 17 21 - - -
24/08:00pm - - - - - SSE 32 39 17 21 - - -
24/07:30pm - - - - - SSE 37 46 20 25 - - -
24/07:00pm - - - - - SSE 33 46 18 25 - - -
24/06:30pm - - - - - SSE 41 54 22 29 - - -
24/06:00pm - - - - - SSE 37 48 20 26 - - -
24/05:30pm - - - - - SSE 41 48 22 26 - - -
24/05:00pm - - - - - SSE 37 48 20 26 - - -
24/04:30pm - - - - - SSE 35 44 19 24 - - -
24/04:00pm - - - - - SSE 32 43 17 23 - - -
24/03:30pm - - - - - S 30 39 16 21 - - -
24/03:00pm - - - - - SSE 30 37 16 20 - - -
24/02:30pm - - - - - SSE 30 37 16 20 - - -
24/02:00pm - - - - - SSE 30 37 16 20 - - -
24/01:30pm - - - - - SSE 32 41 17 22 - - -
24/01:00pm - - - - - SSE 26 39 14 21 - - -
24/12:30pm - - - - - SSE 26 37 14 20 - - -
24/12:00pm - - - - - SSE 28 33 15 18 - - -
24/11:30am - - - - - SSE 28 37 15 20 - - -
24/11:00am - - - - - SSE 26 32 14 17 - - -
24/10:30am - - - - - SSE 28 37 15 20 - - -
24/10:00am - - - - - SSE 28 35 15 19 - - -
24/09:30am - - - - - SSE 24 33 13 18 - - -
24/09:00am - - - - - SSE 24 30 13 16 - - -
24/08:30am - - - - - SSE 20 26 11 14 - - -
24/08:00am - - - - - SSE 20 22 11 12 - - -
24/07:30am - - - - - SSE 24 28 13 15 - - -
24/07:00am - - - - - SSE 26 30 14 16 - - -
24/06:30am - - - - - SSE 28 30 15 16 - - -
24/06:00am - - - - - SSE 28 32 15 17 - - -
24/05:30am - - - - - SSE 28 30 15 16 - - -
24/05:00am - - - - - SSE 30 32 16 17 - - -
24/04:30am - - - - - SSE 26 30 14 16 - - -
24/04:00am - - - - - SSE 28 30 15 16 - - -
24/03:30am - - - - - SSE 28 32 15 17 - - -
24/03:00am - - - - - SSE 28 30 15 16 - - -
24/02:30am - - - - - SSE 28 33 15 18 - - -
24/02:00am - - - - - SSE 26 32 14 17 - - -
24/01:30am - - - - - SSE 26 30 14 16 - - -
24/01:00am - - - - - SSE 26 32 14 17 - - -
24/12:30am - - - - - SSE 26 30 14 16 - - -
24/12:00am - - - - - SSE 26 28 14 15 - - -
 
Date/Time
CDT
Temp
°C
App
Temp
°C
Dew
Point
°C
Rel
Hum
%
Delta-T
°C
Wind Press
QNH
hPa
Press
MSL
hPa
Rain since
9am
mm
Dir  Spd
km/h
Gust
km/h
Spd
kts
Gust
kts
23/11:30pm - - - - - SSE 26 28 14 15 - - -
23/11:00pm - - - - - SSE 24 28 13 15 - - -
23/10:30pm - - - - - SSE 26 32 14 17 - - -
23/10:00pm - - - - - SSE 26 30 14 16 - - -
23/09:30pm - - - - - SSE 24 30 13 16 - - -
23/09:00pm - - - - - SSE 26 32 14 17 - - -
23/08:30pm - - - - - SSE 24 30 13 16 - - -
23/08:00pm - - - - - S 24 30 13 16 - - -
23/07:30pm - - - - - S 20 30 11 16 - - -
23/07:00pm - - - - - S 20 30 11 16 - - -
23/06:30pm - - - - - S 19 26 10 14 - - -
23/06:00pm - - - - - SSE 20 24 11 13 - - -
23/05:30pm - - - - - SE 19 24 10 13 - - -
23/05:00pm - - - - - SW 7 17 4 9 - - -
23/04:30pm - - - - - W 7 17 4 9 - - -
23/04:00pm - - - - - WNW 7 15 4 8 - - -
23/03:30pm - - - - - W 7 15 4 8 - - -
23/03:00pm - - - - - WNW 7 19 4 10 - - -
23/02:30pm - - - - - W 7 15 4 8 - - -
23/02:00pm - - - - - WNW 9 17 5 9 - - -
23/01:30pm - - - - - WNW 9 19 5 10 - - -
23/01:00pm - - - - - WNW 9 19 5 10 - - -
23/12:30pm - - - - - WNW 7 17 4 9 - - -
23/12:00pm - - - - - WNW 6 9 3 5 - - -
23/11:30am - - - - - SSW 4 11 2 6 - - -
23/11:00am - - - - - S 9 15 5 8 - - -
23/10:30am - - - - - NW 4 9 2 5 - - -
23/10:00am - - - - - SW 6 9 3 5 - - -
23/09:30am - - - - - WNW 6 9 3 5 - - -
23/09:00am - - - - - W 2 9 1 5 - - -
23/08:30am - - - - - WSW 4 9 2 5 - - -
23/08:00am - - - - - SW 7 19 4 10 - - -
23/07:30am - - - - - WSW 7 19 4 10 - - -
23/07:00am - - - - - SW 9 17 5 9 - - -
23/06:30am - - - - - WSW 7 20 4 11 - - -
23/06:00am - - - - - WSW 9 19 5 10 - - -
23/05:30am - - - - - WSW 9 24 5 13 - - -
23/05:00am - - - - - W 9 20 5 11 - - -

Other Formats:

Comma delimited format used in spreadsheet applications
http://www.bom.gov.au/fwo/IDS60801/IDS60801.95679.axf

JavaScript Object Notation format (JSON) in row-major order
http://www.bom.gov.au/fwo/IDS60801/IDS60801.95679.json